sensor_id;sensor_type;location;lat;lon;timestamp;P1;durP1;ratioP1;P2;durP2;ratioP2
79526;SDS011;68974;47.754;-3.364;2023-07-20T00:01:21;3.88;;;1.40;;
79526;SDS011;68974;47.754;-3.364;2023-07-20T00:03:46;5.82;;;1.80;;
79526;SDS011;68974;47.754;-3.364;2023-07-20T00:06:26;8.00;;;1.52;;
79526;SDS011;68974;47.754;-3.364;2023-07-20T00:08:53;3.80;;;1.40;;
79526;SDS011;68974;47.754;-3.364;2023-07-20T00:11:19;6.32;;;1.85;;
79526;SDS011;68974;47.754;-3.364;2023-07-20T00:13:44;7.70;;;2.05;;
79526;SDS011;68974;47.754;-3.364;2023-07-20T00:16:09;4.32;;;1.40;;
79526;SDS011;68974;47.754;-3.364;2023-07-20T00:18:35;4.55;;;1.90;;
79526;SDS011;68974;47.754;-3.364;2023-07-20T00:21:00;3.95;;;1.70;;
79526;SDS011;68974;47.754;-3.364;2023-07-20T00:23:26;3.45;;;1.40;;
79526;SDS011;68974;47.754;-3.364;2023-07-20T00:25:52;4.57;;;1.40;;
79526;SDS011;68974;47.754;-3.364;2023-07-20T00:28:18;4.20;;;1.52;;
79526;SDS011;68974;47.754;-3.364;2023-07-20T00:30:43;5.18;;;1.70;;
79526;SDS011;68974;47.754;-3.364;2023-07-20T00:33:10;7.22;;;1.48;;
79526;SDS011;68974;47.754;-3.364;2023-07-20T00:35:36;6.35;;;1.80;;
79526;SDS011;68974;47.754;-3.364;2023-07-20T00:38:02;2.85;;;1.42;;
79526;SDS011;68974;47.754;-3.364;2023-07-20T00:40:28;5.90;;;1.75;;
79526;SDS011;68974;47.754;-3.364;2023-07-20T00:42:53;3.25;;;1.63;;
79526;SDS011;68974;47.754;-3.364;2023-07-20T00:45:19;6.05;;;1.73;;
79526;SDS011;68974;47.754;-3.364;2023-07-20T00:47:44;3.50;;;1.40;;
79526;SDS011;68974;47.754;-3.364;2023-07-20T00:50:10;4.30;;;2.08;;
79526;SDS011;68974;47.754;-3.364;2023-07-20T00:52:35;5.53;;;1.80;;
79526;SDS011;68974;47.754;-3.364;2023-07-20T00:55:07;10.07;;;2.22;;
79526;SDS011;68974;47.754;-3.364;2023-07-20T00:57:32;5.07;;;1.38;;
79526;SDS011;68974;47.754;-3.364;2023-07-20T00:59:58;5.80;;;1.50;;
79526;SDS011;68974;47.754;-3.364;2023-07-20T01:02:23;4.97;;;1.52;;
79526;SDS011;68974;47.754;-3.364;2023-07-20T01:04:49;4.43;;;1.60;;
79526;SDS011;68974;47.754;-3.364;2023-07-20T01:07:17;2.60;;;1.30;;
79526;SDS011;68974;47.754;-3.364;2023-07-20T01:12:48;2.30;;;1.48;;
79526;SDS011;68974;47.754;-3.364;2023-07-20T01:15:17;7.68;;;2.15;;
79526;SDS011;68974;47.754;-3.364;2023-07-20T01:17:42;4.40;;;1.40;;
79526;SDS011;68974;47.754;-3.364;2023-07-20T01:20:10;7.80;;;1.65;;
79526;SDS011;68974;47.754;-3.364;2023-07-20T01:25:44;5.90;;;1.70;;
79526;SDS011;68974;47.754;-3.364;2023-07-20T01:28:35;5.13;;;1.80;;
79526;SDS011;68974;47.754;-3.364;2023-07-20T01:31:14;5.68;;;1.70;;
79526;SDS011;68974;47.754;-3.364;2023-07-20T01:33:48;3.25;;;1.67;;
79526;SDS011;68974;47.754;-3.364;2023-07-20T01:36:18;3.90;;;1.70;;
79526;SDS011;68974;47.754;-3.364;2023-07-20T01:38:46;4.53;;;1.63;;
79526;SDS011;68974;47.754;-3.364;2023-07-20T01:41:12;9.20;;;2.13;;
79526;SDS011;68974;47.754;-3.364;2023-07-20T01:43:39;5.68;;;1.65;;
79526;SDS011;68974;47.754;-3.364;2023-07-20T01:46:05;2.67;;;1.48;;
79526;SDS011;68974;47.754;-3.364;2023-07-20T01:48:30;4.07;;;2.10;;
79526;SDS011;68974;47.754;-3.364;2023-07-20T01:50:56;5.68;;;1.40;;
79526;SDS011;68974;47.754;-3.364;2023-07-20T01:53:22;4.93;;;1.80;;
79526;SDS011;68974;47.754;-3.364;2023-07-20T01:55:47;2.42;;;1.30;;
79526;SDS011;68974;47.754;-3.364;2023-07-20T01:58:13;4.80;;;2.28;;
79526;SDS011;68974;47.754;-3.364;2023-07-20T02:00:38;4.68;;;2.22;;
79526;SDS011;68974;47.754;-3.364;2023-07-20T02:03:04;6.43;;;2.47;;
79526;SDS011;68974;47.754;-3.364;2023-07-20T02:05:30;4.20;;;1.70;;
79526;SDS011;68974;47.754;-3.364;2023-07-20T02:07:55;5.50;;;1.80;;
79526;SDS011;68974;47.754;-3.364;2023-07-20T02:10:21;2.92;;;1.63;;
79526;SDS011;68974;47.754;-3.364;2023-07-20T02:12:46;3.83;;;1.83;;
79526;SDS011;68974;47.754;-3.364;2023-07-20T02:15:12;3.58;;;1.77;;
79526;SDS011;68974;47.754;-3.364;2023-07-20T02:17:38;6.82;;;2.00;;
79526;SDS011;68974;47.754;-3.364;2023-07-20T02:20:06;3.45;;;1.40;;
79526;SDS011;68974;47.754;-3.364;2023-07-20T02:22:36;6.07;;;2.10;;
79526;SDS011;68974;47.754;-3.364;2023-07-20T02:25:03;2.60;;;1.50;;
79526;SDS011;68974;47.754;-3.364;2023-07-20T02:27:35;4.22;;;1.50;;
79526;SDS011;68974;47.754;-3.364;2023-07-20T02:30:01;6.00;;;1.63;;
79526;SDS011;68974;47.754;-3.364;2023-07-20T02:32:28;5.32;;;2.13;;
79526;SDS011;68974;47.754;-3.364;2023-07-20T02:34:53;3.67;;;1.75;;
79526;SDS011;68974;47.754;-3.364;2023-07-20T02:37:18;4.72;;;1.85;;
79526;SDS011;68974;47.754;-3.364;2023-07-20T02:39:44;3.67;;;1.80;;
79526;SDS011;68974;47.754;-3.364;2023-07-20T02:42:09;4.53;;;1.70;;
79526;SDS011;68974;47.754;-3.364;2023-07-20T02:44:35;3.50;;;1.65;;
79526;SDS011;68974;47.754;-3.364;2023-07-20T02:47:00;3.72;;;1.60;;
79526;SDS011;68974;47.754;-3.364;2023-07-20T02:49:26;3.78;;;1.70;;
79526;SDS011;68974;47.754;-3.364;2023-07-20T02:51:51;4.28;;;1.70;;
79526;SDS011;68974;47.754;-3.364;2023-07-20T02:54:17;8.07;;;1.80;;
79526;SDS011;68974;47.754;-3.364;2023-07-20T02:56:43;3.97;;;1.88;;
79526;SDS011;68974;47.754;-3.364;2023-07-20T02:59:08;3.83;;;1.60;;
79526;SDS011;68974;47.754;-3.364;2023-07-20T03:01:33;5.43;;;1.65;;
79526;SDS011;68974;47.754;-3.364;2023-07-20T03:03:59;7.35;;;1.98;;
79526;SDS011;68974;47.754;-3.364;2023-07-20T03:06:24;4.45;;;1.55;;
79526;SDS011;68974;47.754;-3.364;2023-07-20T03:08:50;4.00;;;1.60;;
79526;SDS011;68974;47.754;-3.364;2023-07-20T03:11:18;5.55;;;2.00;;
79526;SDS011;68974;47.754;-3.364;2023-07-20T03:13:45;5.32;;;1.83;;
79526;SDS011;68974;47.754;-3.364;2023-07-20T03:16:12;3.20;;;1.70;;
79526;SDS011;68974;47.754;-3.364;2023-07-20T03:18:43;3.75;;;1.90;;
79526;SDS011;68974;47.754;-3.364;2023-07-20T03:21:09;5.38;;;2.20;;
79526;SDS011;68974;47.754;-3.364;2023-07-20T03:23:39;4.88;;;2.15;;
79526;SDS011;68974;47.754;-3.364;2023-07-20T03:26:05;4.53;;;1.45;;
79526;SDS011;68974;47.754;-3.364;2023-07-20T03:28:33;3.35;;;1.80;;
79526;SDS011;68974;47.754;-3.364;2023-07-20T03:31:01;6.53;;;1.83;;
79526;SDS011;68974;47.754;-3.364;2023-07-20T03:33:28;3.25;;;1.80;;
79526;SDS011;68974;47.754;-3.364;2023-07-20T03:35:55;3.42;;;1.80;;
79526;SDS011;68974;47.754;-3.364;2023-07-20T03:38:21;3.63;;;1.90;;
79526;SDS011;68974;47.754;-3.364;2023-07-20T03:40:54;3.22;;;1.75;;
79526;SDS011;68974;47.754;-3.364;2023-07-20T03:43:21;5.00;;;1.92;;
79526;SDS011;68974;47.754;-3.364;2023-07-20T03:45:47;6.88;;;2.67;;
79526;SDS011;68974;47.754;-3.364;2023-07-20T03:48:16;4.30;;;1.70;;
79526;SDS011;68974;47.754;-3.364;2023-07-20T03:50:46;3.78;;;2.05;;
79526;SDS011;68974;47.754;-3.364;2023-07-20T03:53:13;4.30;;;1.90;;
79526;SDS011;68974;47.754;-3.364;2023-07-20T03:55:39;5.00;;;2.45;;
79526;SDS011;68974;47.754;-3.364;2023-07-20T03:58:08;4.65;;;1.90;;
79526;SDS011;68974;47.754;-3.364;2023-07-20T04:00:34;5.53;;;2.00;;
79526;SDS011;68974;47.754;-3.364;2023-07-20T04:03:00;5.22;;;1.83;;
79526;SDS011;68974;47.754;-3.364;2023-07-20T04:05:25;4.35;;;1.63;;
79526;SDS011;68974;47.754;-3.364;2023-07-20T04:07:51;2.92;;;2.00;;
79526;SDS011;68974;47.754;-3.364;2023-07-20T04:10:17;5.88;;;2.00;;
79526;SDS011;68974;47.754;-3.364;2023-07-20T04:12:43;3.85;;;1.95;;
79526;SDS011;68974;47.754;-3.364;2023-07-20T04:15:09;4.13;;;2.10;;
79526;SDS011;68974;47.754;-3.364;2023-07-20T04:17:34;5.32;;;1.73;;
79526;SDS011;68974;47.754;-3.364;2023-07-20T04:20:00;6.28;;;2.45;;
79526;SDS011;68974;47.754;-3.364;2023-07-20T04:22:26;2.75;;;1.83;;
79526;SDS011;68974;47.754;-3.364;2023-07-20T04:24:52;4.05;;;2.25;;
79526;SDS011;68974;47.754;-3.364;2023-07-20T04:27:17;5.32;;;2.08;;
79526;SDS011;68974;47.754;-3.364;2023-07-20T04:29:43;5.88;;;2.08;;
79526;SDS011;68974;47.754;-3.364;2023-07-20T04:32:08;4.88;;;2.20;;
79526;SDS011;68974;47.754;-3.364;2023-07-20T04:34:34;3.63;;;2.28;;
79526;SDS011;68974;47.754;-3.364;2023-07-20T04:37:02;6.35;;;2.33;;
79526;SDS011;68974;47.754;-3.364;2023-07-20T04:39:28;4.25;;;2.08;;
79526;SDS011;68974;47.754;-3.364;2023-07-20T04:41:54;2.60;;;1.70;;
79526;SDS011;68974;47.754;-3.364;2023-07-20T04:44:19;2.95;;;2.10;;
79526;SDS011;68974;47.754;-3.364;2023-07-20T04:46:44;4.93;;;1.90;;
79526;SDS011;68974;47.754;-3.364;2023-07-20T04:49:10;6.43;;;2.17;;
79526;SDS011;68974;47.754;-3.364;2023-07-20T04:51:37;6.40;;;3.10;;
79526;SDS011;68974;47.754;-3.364;2023-07-20T04:54:03;6.25;;;1.90;;
79526;SDS011;68974;47.754;-3.364;2023-07-20T04:56:29;6.78;;;3.50;;
79526;SDS011;68974;47.754;-3.364;2023-07-20T04:58:54;4.15;;;2.30;;
79526;SDS011;68974;47.754;-3.364;2023-07-20T05:01:20;6.97;;;2.33;;
79526;SDS011;68974;47.754;-3.364;2023-07-20T05:03:45;6.72;;;2.15;;
79526;SDS011;68974;47.754;-3.364;2023-07-20T05:06:10;5.68;;;2.15;;
79526;SDS011;68974;47.754;-3.364;2023-07-20T05:08:36;3.60;;;2.00;;
79526;SDS011;68974;47.754;-3.364;2023-07-20T05:11:01;4.53;;;2.05;;
79526;SDS011;68974;47.754;-3.364;2023-07-20T05:13:27;3.88;;;2.08;;
79526;SDS011;68974;47.754;-3.364;2023-07-20T05:15:52;6.53;;;2.10;;
79526;SDS011;68974;47.754;-3.364;2023-07-20T05:18:18;4.47;;;2.25;;
79526;SDS011;68974;47.754;-3.364;2023-07-20T05:23:11;7.18;;;2.10;;
79526;SDS011;68974;47.754;-3.364;2023-07-20T05:25:36;7.38;;;2.20;;
79526;SDS011;68974;47.754;-3.364;2023-07-20T05:28:02;5.50;;;2.30;;
79526;SDS011;68974;47.754;-3.364;2023-07-20T05:30:27;6.50;;;2.17;;
79526;SDS011;68974;47.754;-3.364;2023-07-20T05:32:54;4.03;;;2.30;;
79526;SDS011;68974;47.754;-3.364;2023-07-20T05:35:19;3.35;;;2.00;;
79526;SDS011;68974;47.754;-3.364;2023-07-20T05:37:45;5.07;;;2.17;;
79526;SDS011;68974;47.754;-3.364;2023-07-20T05:40:11;8.23;;;2.40;;
79526;SDS011;68974;47.754;-3.364;2023-07-20T05:42:37;5.85;;;1.90;;
79526;SDS011;68974;47.754;-3.364;2023-07-20T05:45:03;3.20;;;1.92;;
79526;SDS011;68974;47.754;-3.364;2023-07-20T05:47:29;5.45;;;2.60;;
79526;SDS011;68974;47.754;-3.364;2023-07-20T05:49:54;6.32;;;2.30;;
79526;SDS011;68974;47.754;-3.364;2023-07-20T05:52:19;7.13;;;2.30;;
79526;SDS011;68974;47.754;-3.364;2023-07-20T05:54:45;6.72;;;1.75;;
79526;SDS011;68974;47.754;-3.364;2023-07-20T05:57:10;4.35;;;2.53;;
79526;SDS011;68974;47.754;-3.364;2023-07-20T05:59:36;4.93;;;2.22;;
79526;SDS011;68974;47.754;-3.364;2023-07-20T06:02:01;4.03;;;2.08;;
79526;SDS011;68974;47.754;-3.364;2023-07-20T06:04:27;5.30;;;2.53;;
79526;SDS011;68974;47.754;-3.364;2023-07-20T06:06:52;4.17;;;2.20;;
79526;SDS011;68974;47.754;-3.364;2023-07-20T06:09:17;6.47;;;2.10;;
79526;SDS011;68974;47.754;-3.364;2023-07-20T06:11:43;8.57;;;2.28;;
79526;SDS011;68974;47.754;-3.364;2023-07-20T06:14:08;4.63;;;2.25;;
79526;SDS011;68974;47.754;-3.364;2023-07-20T06:16:34;9.32;;;2.20;;
79526;SDS011;68974;47.754;-3.364;2023-07-20T06:18:59;5.22;;;2.00;;
79526;SDS011;68974;47.754;-3.364;2023-07-20T06:21:25;5.22;;;2.30;;
79526;SDS011;68974;47.754;-3.364;2023-07-20T06:23:50;5.07;;;2.00;;
79526;SDS011;68974;47.754;-3.364;2023-07-20T06:26:16;5.67;;;2.30;;
79526;SDS011;68974;47.754;-3.364;2023-07-20T06:28:41;3.83;;;2.00;;
79526;SDS011;68974;47.754;-3.364;2023-07-20T06:31:06;4.88;;;2.03;;
79526;SDS011;68974;47.754;-3.364;2023-07-20T06:33:32;7.32;;;2.60;;
79526;SDS011;68974;47.754;-3.364;2023-07-20T06:35:57;5.72;;;2.30;;
79526;SDS011;68974;47.754;-3.364;2023-07-20T06:38:23;3.85;;;1.70;;
79526;SDS011;68974;47.754;-3.364;2023-07-20T06:40:51;4.90;;;1.83;;
79526;SDS011;68974;47.754;-3.364;2023-07-20T06:43:17;5.00;;;2.00;;
79526;SDS011;68974;47.754;-3.364;2023-07-20T06:45:43;5.28;;;1.63;;
79526;SDS011;68974;47.754;-3.364;2023-07-20T06:48:08;4.10;;;2.17;;
79526;SDS011;68974;47.754;-3.364;2023-07-20T06:50:34;5.65;;;1.92;;
79526;SDS011;68974;47.754;-3.364;2023-07-20T06:52:59;5.05;;;1.85;;
79526;SDS011;68974;47.754;-3.364;2023-07-20T06:55:28;4.68;;;1.90;;
79526;SDS011;68974;47.754;-3.364;2023-07-20T06:57:53;6.05;;;1.92;;
79526;SDS011;68974;47.754;-3.364;2023-07-20T07:00:19;5.13;;;2.00;;
79526;SDS011;68974;47.754;-3.364;2023-07-20T07:02:45;3.20;;;1.83;;
79526;SDS011;68974;47.754;-3.364;2023-07-20T07:05:10;6.13;;;2.08;;
79526;SDS011;68974;47.754;-3.364;2023-07-20T07:07:35;4.90;;;2.35;;
79526;SDS011;68974;47.754;-3.364;2023-07-20T07:10:01;4.78;;;1.77;;
79526;SDS011;68974;47.754;-3.364;2023-07-20T07:12:29;3.17;;;2.13;;
79526;SDS011;68974;47.754;-3.364;2023-07-20T07:14:55;4.07;;;2.10;;
79526;SDS011;68974;47.754;-3.364;2023-07-20T07:17:20;4.85;;;1.98;;
79526;SDS011;68974;47.754;-3.364;2023-07-20T07:19:45;5.45;;;2.15;;
79526;SDS011;68974;47.754;-3.364;2023-07-20T07:22:11;7.10;;;1.60;;
79526;SDS011;68974;47.754;-3.364;2023-07-20T07:24:36;5.00;;;1.90;;
79526;SDS011;68974;47.754;-3.364;2023-07-20T07:27:02;4.18;;;1.63;;
79526;SDS011;68974;47.754;-3.364;2023-07-20T07:29:30;6.13;;;2.17;;
79526;SDS011;68974;47.754;-3.364;2023-07-20T07:31:55;4.60;;;2.33;;
79526;SDS011;68974;47.754;-3.364;2023-07-20T07:34:21;5.28;;;2.30;;
79526;SDS011;68974;47.754;-3.364;2023-07-20T07:36:46;4.57;;;1.90;;
79526;SDS011;68974;47.754;-3.364;2023-07-20T07:39:12;7.43;;;2.47;;
79526;SDS011;68974;47.754;-3.364;2023-07-20T07:41:37;5.47;;;2.50;;
79526;SDS011;68974;47.754;-3.364;2023-07-20T07:44:03;6.00;;;2.58;;
79526;SDS011;68974;47.754;-3.364;2023-07-20T07:46:28;6.93;;;2.40;;
79526;SDS011;68974;47.754;-3.364;2023-07-20T07:48:53;7.43;;;2.65;;
79526;SDS011;68974;47.754;-3.364;2023-07-20T07:51:19;5.60;;;2.15;;
79526;SDS011;68974;47.754;-3.364;2023-07-20T07:53:45;3.10;;;2.10;;
79526;SDS011;68974;47.754;-3.364;2023-07-20T07:56:11;4.55;;;2.13;;
79526;SDS011;68974;47.754;-3.364;2023-07-20T07:58:37;4.50;;;2.00;;
79526;SDS011;68974;47.754;-3.364;2023-07-20T08:01:03;4.57;;;2.00;;
79526;SDS011;68974;47.754;-3.364;2023-07-20T08:03:29;6.90;;;2.45;;
79526;SDS011;68974;47.754;-3.364;2023-07-20T08:05:54;3.42;;;2.28;;
79526;SDS011;68974;47.754;-3.364;2023-07-20T08:08:25;2.97;;;1.92;;
79526;SDS011;68974;47.754;-3.364;2023-07-20T08:10:53;4.30;;;2.00;;
79526;SDS011;68974;47.754;-3.364;2023-07-20T08:13:20;3.80;;;2.25;;
79526;SDS011;68974;47.754;-3.364;2023-07-20T08:15:48;5.97;;;2.15;;
79526;SDS011;68974;47.754;-3.364;2023-07-20T08:18:16;3.97;;;2.35;;
79526;SDS011;68974;47.754;-3.364;2023-07-20T08:20:44;4.47;;;2.30;;
79526;SDS011;68974;47.754;-3.364;2023-07-20T08:23:10;5.50;;;2.20;;
79526;SDS011;68974;47.754;-3.364;2023-07-20T08:25:38;5.93;;;2.33;;
79526;SDS011;68974;47.754;-3.364;2023-07-20T08:28:07;9.48;;;2.50;;
79526;SDS011;68974;47.754;-3.364;2023-07-20T08:30:43;6.38;;;2.28;;
79526;SDS011;68974;47.754;-3.364;2023-07-20T08:33:10;5.22;;;2.60;;
79526;SDS011;68974;47.754;-3.364;2023-07-20T08:35:36;4.65;;;2.20;;
79526;SDS011;68974;47.754;-3.364;2023-07-20T08:38:02;3.47;;;2.28;;
79526;SDS011;68974;47.754;-3.364;2023-07-20T08:40:29;3.47;;;2.03;;
79526;SDS011;68974;47.754;-3.364;2023-07-20T08:42:55;3.72;;;1.80;;
79526;SDS011;68974;47.754;-3.364;2023-07-20T08:45:23;5.60;;;1.90;;
79526;SDS011;68974;47.754;-3.364;2023-07-20T08:47:50;3.40;;;1.80;;
79526;SDS011;68974;47.754;-3.364;2023-07-20T08:50:16;3.47;;;2.25;;
79526;SDS011;68974;47.754;-3.364;2023-07-20T08:52:42;2.30;;;1.70;;
79526;SDS011;68974;47.754;-3.364;2023-07-20T08:55:07;2.95;;;1.70;;
79526;SDS011;68974;47.754;-3.364;2023-07-20T08:57:33;4.57;;;1.85;;
79526;SDS011;68974;47.754;-3.364;2023-07-20T09:00:03;3.92;;;2.83;;
79526;SDS011;68974;47.754;-3.364;2023-07-20T09:02:36;6.80;;;2.00;;
79526;SDS011;68974;47.754;-3.364;2023-07-20T09:05:05;3.47;;;1.58;;
79526;SDS011;68974;47.754;-3.364;2023-07-20T09:07:32;2.50;;;1.50;;
79526;SDS011;68974;47.754;-3.364;2023-07-20T09:10:00;4.80;;;2.53;;
79526;SDS011;68974;47.754;-3.364;2023-07-20T09:12:30;3.17;;;1.92;;
79526;SDS011;68974;47.754;-3.364;2023-07-20T09:14:57;2.08;;;1.52;;
79526;SDS011;68974;47.754;-3.364;2023-07-20T09:17:22;2.42;;;1.60;;
79526;SDS011;68974;47.754;-3.364;2023-07-20T09:19:51;4.50;;;1.70;;
79526;SDS011;68974;47.754;-3.364;2023-07-20T09:22:16;3.08;;;1.58;;
79526;SDS011;68974;47.754;-3.364;2023-07-20T09:24:42;2.30;;;1.35;;
79526;SDS011;68974;47.754;-3.364;2023-07-20T09:27:09;3.75;;;1.27;;
79526;SDS011;68974;47.754;-3.364;2023-07-20T09:29:46;6.57;;;2.15;;
79526;SDS011;68974;47.754;-3.364;2023-07-20T09:32:13;4.22;;;1.05;;
79526;SDS011;68974;47.754;-3.364;2023-07-20T09:34:44;5.65;;;1.30;;
79526;SDS011;68974;47.754;-3.364;2023-07-20T09:37:09;2.45;;;1.30;;
79526;SDS011;68974;47.754;-3.364;2023-07-20T09:39:42;2.47;;;1.50;;
79526;SDS011;68974;47.754;-3.364;2023-07-20T09:42:14;2.08;;;1.77;;
79526;SDS011;68974;47.754;-3.364;2023-07-20T09:44:39;2.45;;;1.27;;
79526;SDS011;68974;47.754;-3.364;2023-07-20T09:47:08;2.88;;;1.33;;
79526;SDS011;68974;47.754;-3.364;2023-07-20T09:49:41;4.07;;;1.70;;
79526;SDS011;68974;47.754;-3.364;2023-07-20T09:52:08;2.60;;;1.08;;
79526;SDS011;68974;47.754;-3.364;2023-07-20T09:54:34;4.97;;;1.58;;
79526;SDS011;68974;47.754;-3.364;2023-07-20T09:57:02;2.67;;;1.55;;
79526;SDS011;68974;47.754;-3.364;2023-07-20T09:59:28;3.90;;;1.70;;
79526;SDS011;68974;47.754;-3.364;2023-07-20T10:01:54;4.40;;;1.75;;
79526;SDS011;68974;47.754;-3.364;2023-07-20T10:04:24;2.55;;;1.35;;
79526;SDS011;68974;47.754;-3.364;2023-07-20T10:06:51;2.00;;;1.27;;
79526;SDS011;68974;47.754;-3.364;2023-07-20T10:09:19;2.97;;;1.40;;
79526;SDS011;68974;47.754;-3.364;2023-07-20T10:11:49;2.63;;;1.20;;
79526;SDS011;68974;47.754;-3.364;2023-07-20T10:14:16;4.28;;;1.20;;
79526;SDS011;68974;47.754;-3.364;2023-07-20T10:16:51;2.35;;;0.90;;
79526;SDS011;68974;47.754;-3.364;2023-07-20T10:19:23;1.83;;;0.85;;
79526;SDS011;68974;47.754;-3.364;2023-07-20T10:22:14;1.85;;;1.10;;
79526;SDS011;68974;47.754;-3.364;2023-07-20T10:27:10;3.03;;;1.25;;
79526;SDS011;68974;47.754;-3.364;2023-07-20T10:29:36;3.35;;;1.48;;
79526;SDS011;68974;47.754;-3.364;2023-07-20T10:32:02;3.95;;;1.50;;
79526;SDS011;68974;47.754;-3.364;2023-07-20T10:34:29;3.13;;;1.27;;
79526;SDS011;68974;47.754;-3.364;2023-07-20T10:36:54;2.10;;;1.15;;
79526;SDS011;68974;47.754;-3.364;2023-07-20T10:39:23;2.60;;;1.40;;
79526;SDS011;68974;47.754;-3.364;2023-07-20T10:41:50;1.60;;;1.17;;
79526;SDS011;68974;47.754;-3.364;2023-07-20T10:44:34;2.28;;;1.20;;
79526;SDS011;68974;47.754;-3.364;2023-07-20T10:47:03;1.73;;;1.17;;
79526;SDS011;68974;47.754;-3.364;2023-07-20T10:49:34;1.35;;;1.08;;
79526;SDS011;68974;47.754;-3.364;2023-07-20T10:52:03;2.53;;;1.05;;
79526;SDS011;68974;47.754;-3.364;2023-07-20T10:59:48;1.92;;;1.42;;
79526;SDS011;68974;47.754;-3.364;2023-07-20T11:02:17;2.85;;;1.50;;
79526;SDS011;68974;47.754;-3.364;2023-07-20T11:04:44;6.30;;;1.40;;
79526;SDS011;68974;47.754;-3.364;2023-07-20T11:07:10;5.25;;;1.20;;
79526;SDS011;68974;47.754;-3.364;2023-07-20T11:09:43;3.53;;;1.40;;
79526;SDS011;68974;47.754;-3.364;2023-07-20T11:12:18;1.83;;;1.20;;
79526;SDS011;68974;47.754;-3.364;2023-07-20T11:17:28;2.88;;;1.38;;
79526;SDS011;68974;47.754;-3.364;2023-07-20T11:19:58;1.88;;;1.10;;
79526;SDS011;68974;47.754;-3.364;2023-07-20T11:22:28;1.77;;;1.20;;
79526;SDS011;68974;47.754;-3.364;2023-07-20T11:24:56;1.70;;;1.10;;
79526;SDS011;68974;47.754;-3.364;2023-07-20T11:27:21;1.65;;;1.13;;
79526;SDS011;68974;47.754;-3.364;2023-07-20T11:29:47;2.42;;;1.40;;
79526;SDS011;68974;47.754;-3.364;2023-07-20T11:32:20;1.90;;;1.20;;
79526;SDS011;68974;47.754;-3.364;2023-07-20T11:34:49;2.63;;;1.30;;
79526;SDS011;68974;47.754;-3.364;2023-07-20T11:37:15;2.85;;;1.05;;
79526;SDS011;68974;47.754;-3.364;2023-07-20T11:39:41;3.67;;;1.00;;
79526;SDS011;68974;47.754;-3.364;2023-07-20T11:42:06;1.98;;;1.20;;
79526;SDS011;68974;47.754;-3.364;2023-07-20T11:44:32;2.13;;;1.50;;
79526;SDS011;68974;47.754;-3.364;2023-07-20T11:49:43;3.95;;;1.10;;
79526;SDS011;68974;47.754;-3.364;2023-07-20T11:52:14;1.83;;;1.15;;
79526;SDS011;68974;47.754;-3.364;2023-07-20T11:54:41;2.80;;;1.40;;
79526;SDS011;68974;47.754;-3.364;2023-07-20T11:57:15;1.65;;;1.35;;
79526;SDS011;68974;47.754;-3.364;2023-07-20T11:59:56;2.00;;;1.25;;
79526;SDS011;68974;47.754;-3.364;2023-07-20T12:02:23;2.88;;;1.30;;
79526;SDS011;68974;47.754;-3.364;2023-07-20T12:04:51;2.10;;;1.10;;
79526;SDS011;68974;47.754;-3.364;2023-07-20T12:07:18;2.58;;;1.33;;
79526;SDS011;68974;47.754;-3.364;2023-07-20T12:09:44;3.08;;;1.08;;
79526;SDS011;68974;47.754;-3.364;2023-07-20T12:12:10;4.78;;;1.35;;
79526;SDS011;68974;47.754;-3.364;2023-07-20T12:14:38;2.97;;;1.10;;
79526;SDS011;68974;47.754;-3.364;2023-07-20T12:17:04;1.40;;;1.10;;
79526;SDS011;68974;47.754;-3.364;2023-07-20T12:19:37;2.50;;;1.13;;
79526;SDS011;68974;47.754;-3.364;2023-07-20T12:22:03;1.60;;;0.80;;
79526;SDS011;68974;47.754;-3.364;2023-07-20T12:24:29;4.18;;;1.40;;
79526;SDS011;68974;47.754;-3.364;2023-07-20T12:26:58;3.20;;;1.85;;
79526;SDS011;68974;47.754;-3.364;2023-07-20T12:29:24;2.30;;;1.30;;
79526;SDS011;68974;47.754;-3.364;2023-07-20T12:31:49;2.70;;;1.30;;
79526;SDS011;68974;47.754;-3.364;2023-07-20T12:34:14;2.80;;;1.23;;
79526;SDS011;68974;47.754;-3.364;2023-07-20T12:36:40;4.72;;;1.73;;
79526;SDS011;68974;47.754;-3.364;2023-07-20T12:39:05;5.50;;;1.65;;
79526;SDS011;68974;47.754;-3.364;2023-07-20T12:41:30;2.85;;;1.27;;
79526;SDS011;68974;47.754;-3.364;2023-07-20T12:43:56;4.93;;;1.40;;
79526;SDS011;68974;47.754;-3.364;2023-07-20T12:46:23;1.98;;;1.15;;
79526;SDS011;68974;47.754;-3.364;2023-07-20T12:48:48;1.42;;;0.98;;
79526;SDS011;68974;47.754;-3.364;2023-07-20T12:51:14;1.30;;;0.98;;
79526;SDS011;68974;47.754;-3.364;2023-07-20T12:53:39;3.00;;;1.27;;
79526;SDS011;68974;47.754;-3.364;2023-07-20T12:56:05;3.13;;;1.42;;
79526;SDS011;68974;47.754;-3.364;2023-07-20T12:58:31;2.67;;;1.65;;
79526;SDS011;68974;47.754;-3.364;2023-07-20T13:00:57;1.73;;;1.23;;
79526;SDS011;68974;47.754;-3.364;2023-07-20T13:03:22;2.42;;;1.55;;
79526;SDS011;68974;47.754;-3.364;2023-07-20T13:05:48;4.30;;;1.50;;
79526;SDS011;68974;47.754;-3.364;2023-07-20T13:08:14;3.00;;;1.50;;
79526;SDS011;68974;47.754;-3.364;2023-07-20T13:10:40;3.00;;;1.63;;
79526;SDS011;68974;47.754;-3.364;2023-07-20T13:13:05;3.72;;;1.45;;
79526;SDS011;68974;47.754;-3.364;2023-07-20T13:15:32;1.95;;;1.70;;
79526;SDS011;68974;47.754;-3.364;2023-07-20T13:18:05;4.95;;;1.65;;
79526;SDS011;68974;47.754;-3.364;2023-07-20T13:20:30;5.68;;;1.80;;
79526;SDS011;68974;47.754;-3.364;2023-07-20T13:22:55;4.07;;;1.38;;
79526;SDS011;68974;47.754;-3.364;2023-07-20T13:25:21;3.33;;;1.23;;
79526;SDS011;68974;47.754;-3.364;2023-07-20T13:27:46;3.20;;;1.48;;
79526;SDS011;68974;47.754;-3.364;2023-07-20T13:30:12;1.73;;;1.40;;
79526;SDS011;68974;47.754;-3.364;2023-07-20T13:32:41;3.53;;;1.70;;
79526;SDS011;68974;47.754;-3.364;2023-07-20T13:35:10;2.95;;;1.20;;
79526;SDS011;68974;47.754;-3.364;2023-07-20T13:37:38;3.50;;;1.45;;
79526;SDS011;68974;47.754;-3.364;2023-07-20T13:40:04;3.63;;;1.60;;
79526;SDS011;68974;47.754;-3.364;2023-07-20T13:42:30;2.83;;;1.75;;
79526;SDS011;68974;47.754;-3.364;2023-07-20T13:44:56;1.85;;;1.15;;
79526;SDS011;68974;47.754;-3.364;2023-07-20T13:47:22;2.65;;;1.38;;
79526;SDS011;68974;47.754;-3.364;2023-07-20T13:49:47;4.07;;;1.35;;
79526;SDS011;68974;47.754;-3.364;2023-07-20T13:52:13;5.85;;;1.42;;
79526;SDS011;68974;47.754;-3.364;2023-07-20T13:54:39;2.83;;;1.65;;
79526;SDS011;68974;47.754;-3.364;2023-07-20T13:57:04;3.30;;;1.48;;
79526;SDS011;68974;47.754;-3.364;2023-07-20T13:59:30;4.20;;;1.50;;
79526;SDS011;68974;47.754;-3.364;2023-07-20T14:01:55;2.25;;;1.40;;
79526;SDS011;68974;47.754;-3.364;2023-07-20T14:04:20;3.80;;;1.15;;
79526;SDS011;68974;47.754;-3.364;2023-07-20T14:06:46;4.47;;;1.35;;
79526;SDS011;68974;47.754;-3.364;2023-07-20T14:09:12;4.00;;;1.35;;
79526;SDS011;68974;47.754;-3.364;2023-07-20T14:11:37;3.42;;;1.13;;
79526;SDS011;68974;47.754;-3.364;2023-07-20T14:14:03;3.30;;;1.23;;
79526;SDS011;68974;47.754;-3.364;2023-07-20T14:16:28;4.38;;;1.65;;
79526;SDS011;68974;47.754;-3.364;2023-07-20T14:18:54;1.88;;;1.50;;
79526;SDS011;68974;47.754;-3.364;2023-07-20T14:21:20;3.08;;;1.33;;
79526;SDS011;68974;47.754;-3.364;2023-07-20T14:23:46;2.83;;;1.45;;
79526;SDS011;68974;47.754;-3.364;2023-07-20T14:26:16;2.83;;;1.35;;
79526;SDS011;68974;47.754;-3.364;2023-07-20T14:28:42;2.65;;;1.17;;
79526;SDS011;68974;47.754;-3.364;2023-07-20T14:31:07;1.58;;;1.10;;
79526;SDS011;68974;47.754;-3.364;2023-07-20T14:33:33;2.63;;;1.25;;
79526;SDS011;68974;47.754;-3.364;2023-07-20T14:35:59;1.50;;;1.23;;
79526;SDS011;68974;47.754;-3.364;2023-07-20T14:38:26;2.40;;;1.60;;
79526;SDS011;68974;47.754;-3.364;2023-07-20T14:40:51;3.85;;;1.35;;
79526;SDS011;68974;47.754;-3.364;2023-07-20T14:43:17;2.60;;;1.58;;
79526;SDS011;68974;47.754;-3.364;2023-07-20T14:45:42;6.85;;;1.52;;
79526;SDS011;68974;47.754;-3.364;2023-07-20T14:48:08;2.20;;;1.10;;
79526;SDS011;68974;47.754;-3.364;2023-07-20T14:50:34;3.35;;;1.52;;
79526;SDS011;68974;47.754;-3.364;2023-07-20T14:52:59;3.40;;;1.10;;